Aidaaura — IBNZ — position and weather

sailwx.info

Track history (hours):
 
Tides and Currents Weather Stations Pressure Air Temp Water Temp Dewpoint Dewpoint Depression Visibility Wind Speed Wind Dir Waves Ship Positions

Aidaaura

Last reported at 2018-Jun-19 23:25 UTC. Time now 2018-Jun-20 05:07 UTC.
Position N 62°47' E 005°32'.

Length 203 m; draft 6.3 m.

Type: Passenger vessel. MMSI: 247117400.

Date/timePositionNaut miles runAvg speedWind from/ knotsBaromVisibWave heightAir tempDewpointWater temp
2018-Jun-19 23:25N 62°47' E 005°32'512.3
2018-Jun-19 23:00N 62°43' E 005°32'612.6
2018-Jun-19 22:30N 62°36' E 005°31'510.8
2018-Jun-19 22:00N 62°32' E 005°39'611.9
2018-Jun-19 21:29N 62°28' E 005°49'612.9
2018-Jun-19 20:59N 62°25' E 006°02'713.2
2018-Jun-19 20:30N 62°23' E 006°15'816.6
2018-Jun-19 20:00N 62°26' E 006°32'816.0
2018-Jun-19 19:29N 62°27' E 006°50'816.4
2018-Jun-19 18:59N 62°19' E 006°58'816.7
2018-Jun-19 18:30N 62°11' E 007°02'611.7
2018-Jun-19 18:00N 62°05' E 007°02'5 9.3
2018-Jun-19 17:30N 62°06' E 007°11'0 0.0
2018-Jun-19 16:55N 62°06' E 007°11'0 0.0
2018-Jun-19 16:25N 62°06' E 007°11'0 0.0
2018-Jun-19 15:55N 62°06' E 007°11'0 0.0
2018-Jun-19 15:25N 62°06' E 007°11'0 0.0
2018-Jun-19 14:55N 62°06' E 007°11'0 0.1
2018-Jun-19 14:25N 62°06' E 007°11'0 0.0
2018-Jun-19 13:55N 62°06' E 007°11'0 0.0
2018-Jun-19 13:25N 62°06' E 007°11'0 0.0
2018-Jun-19 12:55N 62°06' E 007°11'0 0.0
2018-Jun-19 12:25N 62°06' E 007°11'0 0.0
2018-Jun-19 11:55N 62°06' E 007°11'0 0.0
2018-Jun-19 11:25N 62°06' E 007°11'0 0.0
2018-Jun-19 10:55N 62°06' E 007°11'0 0.0
2018-Jun-19 10:25N 62°06' E 007°11'0 0.0
2018-Jun-19 09:55N 62°06' E 007°11'0 0.0
2018-Jun-19 09:25N 62°06' E 007°11'0 0.0
2018-Jun-19 08:55N 62°06' E 007°11'0 0.0
2018-Jun-19 08:25N 62°06' E 007°11'2 4.9
2018-Jun-19 08:00N 62°07' E 007°07'5 9.8
2018-Jun-19 07:30N 62°07' E 006°57'1 0.4
2018-Jun-19 05:19N 62°06' E 006°55'414.7
2018-Jun-19 05:00N 62°10' E 007°01'714.5
2018-Jun-19 04:30N 62°17' E 007°01'713.6
2018-Jun-19 04:00N 62°24' E 006°55'713.3
2018-Jun-19 03:29N 62°27' E 006°44'715.3
2018-Jun-19 03:00N 62°25' E 006°28'815.7
2018-Jun-19 02:30N 62°23' E 006°12'714.3
2018-Jun-19 02:00N 62°27' E 005°59'611.3
2018-Jun-19 01:31N 62°29' E 005°48'713.6
2018-Jun-19 01:00N 62°31' E 005°34'815.0
2018-Jun-19 00:30N 62°31' E 005°18'815.6
2018-Jun-18 23:59N 62°29' E 005°02'9415.6
2018-Jun-18 17:57N 60°57' E 004°15'920.0
2018-Jun-18 17:30N 60°50' E 004°26'1020.0
2018-Jun-18 16:59N 60°44' E 004°43'713.7
2018-Jun-18 16:30N 60°39' E 004°52'1019.7
2018-Jun-18 16:00N 60°30' E 004°59'916.8
2018-Jun-18 15:29N 60°23' E 005°10'4 8.9
2018-Jun-18 15:00N 60°24' E 005°19'0 0.0
2018-Jun-18 14:30N 60°24' E 005°19'0 0.0
2018-Jun-18 14:00N 60°24' E 005°19'0 0.0
2018-Jun-18 13:30N 60°24' E 005°19'0 0.0
2018-Jun-18 13:00N 60°24' E 005°19'0 0.0
2018-Jun-18 12:30N 60°24' E 005°19'0 0.0
2018-Jun-18 12:00N 60°24' E 005°19'0 0.0
2018-Jun-18 11:30N 60°24' E 005°19'0 0.0
2018-Jun-18 11:00N 60°24' E 005°19'0 0.0
2018-Jun-18 10:30N 60°24' E 005°19'0 0.0
2018-Jun-18 10:00N 60°24' E 005°19'0 0.0
2018-Jun-18 09:30N 60°24' E 005°19'0 0.0
2018-Jun-18 09:00N 60°24' E 005°19'0 0.0
2018-Jun-18 08:29N 60°24' E 005°19'0 0.0
2018-Jun-18 08:00N 60°24' E 005°19'0 0.0
2018-Jun-18 07:30N 60°24' E 005°19'0 0.0
2018-Jun-18 07:00N 60°24' E 005°19'0 0.0
2018-Jun-18 06:30N 60°24' E 005°19'0 0.0
2018-Jun-18 06:00N 60°24' E 005°19'1 2.2
2018-Jun-18 05:30N 60°24' E 005°16'5 9.3
2018-Jun-18 05:00N 60°21' E 005°10'712.6
2018-Jun-18 04:29N 60°14' E 005°10'713.3
2018-Jun-18 04:00N 60°09' E 005°02'510.1
2018-Jun-18 03:30N 60°07' E 004°53'510.6
2018-Jun-18 03:00N 60°03' E 004°45'510.7
2018-Jun-18 02:30N 60°00' E 004°36'6912.7
2018-Jun-17 21:04N 58°51' E 004°30'115.9
2018-Jun-17 21:01N 58°50' E 004°31'816.0
2018-Jun-17 20:29N 58°44' E 004°40'815.7
2018-Jun-17 20:00N 58°39' E 004°51'815.7
2018-Jun-17 19:30N 58°33' E 005°01'815.2
2018-Jun-17 19:01N 58°27' E 005°11'714.5
2018-Jun-17 18:30N 58°22' E 005°20'714.6
2018-Jun-17 18:00N 58°16' E 005°29'713.8
2018-Jun-17 17:30N 58°11' E 005°38'714.1
2018-Jun-17 17:00N 58°07' E 005°48'2214.0
2018-Jun-17 15:27N 57°52' E 006°19'1314.1
2018-Jun-17 14:30N 57°47' E 006°42'715.0
2018-Jun-17 14:00N 57°45' E 006°55'815.5
2018-Jun-17 13:30N 57°43' E 007°10'815.3
2018-Jun-17 13:00N 57°43' E 007°24'714.7
2018-Jun-17 12:30N 57°45' E 007°37'714.2
2018-Jun-17 12:00N 57°45' E 007°51'714.6
2018-Jun-17 11:30N 57°45' E 008°04'8518.1
2018-Jun-17 06:47N 57°50' E 010°44'518.1
2018-Jun-17 06:30N 57°46' E 010°52'918.3
2018-Jun-17 06:00N 57°40' E 011°04'918.5
2018-Jun-17 05:30N 57°34' E 011°17'917.9
2018-Jun-17 05:00N 57°28' E 011°28'918.3
2018-Jun-17 04:30N 57°19' E 011°35'918.7
2018-Jun-17 04:00N 57°10' E 011°40'10117.1
2018-Jun-16 22:06N 55°33' E 010°52'218.6
2018-Jun-16 22:00N 55°31' E 010°53'918.4
2018-Jun-16 21:30N 55°23' E 011°01'918.5
2018-Jun-16 21:00N 55°15' E 011°06'918.1
2018-Jun-16 20:30N 55°06' E 011°03'917.1
2018-Jun-16 20:00N 54°57' E 010°59'816.0
2018-Jun-16 19:30N 54°50' E 010°53'917.1
2018-Jun-16 19:00N 54°42' E 010°54'510.9
2018-Jun-16 18:31N 54°37' E 010°49'918.1
2018-Jun-16 18:01N 54°33' E 010°35'917.8
2018-Jun-16 17:31N 54°30' E 010°21'713.5
2018-Jun-16 17:00N 54°25' E 010°13'5 9.9
2018-Jun-16 16:30N 54°20' E 010°10'1 1.1
2018-Jun-16 15:40N 54°20' E 010°09'0 0.0
2018-Jun-16 15:28N 54°20' E 010°09'0 0.0
2018-Jun-16 04:55N 54°20' E 010°09'4 7.8
2018-Jun-16 04:25N 54°23' E 010°12'614.6
2018-Jun-16 04:00N 54°29' E 010°16'611.4
2018-Jun-16 03:30N 54°32' E 010°24'510.8
2018-Jun-16 03:00N 54°34' E 010°33'511.0
2018-Jun-16 02:31N 54°37' E 010°41'611.1
2018-Jun-16 02:01N 54°40' E 010°48'510.3
2018-Jun-16 01:30N 54°45' E 010°52'510.3
2018-Jun-16 01:00N 54°50' E 010°51'510.8
2018-Jun-16 00:30N 54°55' E 010°54'510.9
2018-Jun-16 00:01N 54°59' E 011°00'611.5
2018-Jun-15 23:30N 55°05' E 011°01'712.2
2018-Jun-15 22:55N 55°12' E 011°05'410.0
2018-Jun-15 22:30N 55°16' E 011°04'510.9
2018-Jun-15 22:00N 55°21' E 011°02'4710.2
2018-Jun-15 17:26N 56°05' E 010°33'614.2
2018-Jun-15 17:00N 56°08' E 010°23'510.0
2018-Jun-15 16:30N 56°09' E 010°14'0 0.4
2018-Jun-15 16:00N 56°09' E 010°14'0 0.0
2018-Jun-15 15:30N 56°09' E 010°14'0 0.0
2018-Jun-15 15:00N 56°09' E 010°14'0 0.0
2018-Jun-15 14:28N 56°09' E 010°14'0 0.0
2018-Jun-15 14:00N 56°09' E 010°14'0 0.0
2018-Jun-15 13:27N 56°09' E 010°14'0 0.0
2018-Jun-15 12:57N 56°09' E 010°14'0 0.0
2018-Jun-15 12:30N 56°09' E 010°14'0 0.0
2018-Jun-15 12:00N 56°09' E 010°14'0 0.0
2018-Jun-15 09:06N 56°09' E 010°14'0 0.0
2018-Jun-15 09:00N 56°09' E 010°14'0 0.0
2018-Jun-15 08:30N 56°09' E 010°14'0 0.0
2018-Jun-15 07:06N 56°09' E 010°14'0 0.0
2018-Jun-15 07:00N 56°09' E 010°14'0 0.0
2018-Jun-15 06:24N 56°09' E 010°14'0 0.0
2018-Jun-15 06:00N 56°09' E 010°14'1 1.5
2018-Jun-15 05:31N 56°10' E 010°15'611.2
2018-Jun-15 05:00N 56°07' E 010°24'510.4
2018-Jun-15 04:30N 56°05' E 010°32'74 7.7
2018-Jun-14 18:55N 57°10' E 011°34'410.3
2018-Jun-14 18:30N 57°14' E 011°32'510.4
2018-Jun-14 18:00N 57°19' E 011°28'510.5
2018-Jun-14 17:30N 57°24' E 011°25'5 9.6
2018-Jun-14 16:59N 57°29' E 011°20'510.7
2018-Jun-14 16:31N 57°32' E 011°14'510.4
2018-Jun-14 16:00N 57°36' E 011°07'2211.1
2018-Jun-14 14:03N 57°51' E 010°37'10011.6
2018-Jun-14 05:25N 57°41' E 007°30'511.7
2018-Jun-14 05:00N 57°42' E 007°21'611.5
2018-Jun-14 04:30N 57°42' E 007°10'611.6
2018-Jun-14 03:57N 57°42' E 006°58'4410.9
2018-Jun-13 23:55N 58°04' E 005°47'2411.3
2018-Jun-13 21:49N 58°20' E 005°13'411.6
2018-Jun-13 21:29N 58°24' E 005°13'611.7
2018-Jun-13 20:58N 58°30' E 005°14'511.4
2018-Jun-13 20:30N 58°35' E 005°15'611.6
2018-Jun-13 20:01N 58°41' E 005°16'611.7
2018-Jun-13 19:30N 58°47' E 005°17'611.8
2018-Jun-13 19:00N 58°53' E 005°17'611.8
2018-Jun-13 18:30N 58°59' E 005°18'611.5
2018-Jun-13 18:00N 59°04' E 005°18'5 9.6
2018-Jun-13 17:30N 59°07' E 005°10'816.9
2018-Jun-13 17:00N 59°15' E 005°07'816.6
2018-Jun-13 16:31N 59°23' E 005°07'4 8.2
2018-Jun-13 16:00N 59°25' E 005°15'0 0.8
2018-Jun-13 15:28N 59°25' E 005°15'0 0.0
2018-Jun-13 14:58N 59°25' E 005°15'0 0.0
2018-Jun-13 14:28N 59°25' E 005°15'0 0.0
2018-Jun-13 13:58N 59°25' E 005°15'0 0.0
2018-Jun-13 13:28N 59°25' E 005°15'0 0.0
2018-Jun-13 12:58N 59°25' E 005°15'0 0.0
2018-Jun-13 12:25N 59°25' E 005°15'0 0.0
2018-Jun-13 11:58N 59°25' E 005°15'0 0.0
2018-Jun-13 11:28N 59°25' E 005°15'0 0.0
2018-Jun-13 10:58N 59°25' E 005°15'0 0.0
2018-Jun-13 10:28N 59°25' E 005°15'0 0.0
2018-Jun-13 09:58N 59°25' E 005°15'0 0.0
2018-Jun-13 09:28N 59°25' E 005°15'0 0.0
2018-Jun-13 08:58N 59°25' E 005°15'0 0.0
2018-Jun-13 08:28N 59°25' E 005°15'0 0.0
2018-Jun-13 07:58N 59°25' E 005°15'0 0.0
2018-Jun-13 07:28N 59°25' E 005°15'0 0.0
2018-Jun-13 06:58N 59°25' E 005°15'0 0.0
2018-Jun-13 06:28N 59°25' E 005°15'0 0.0
2018-Jun-13 06:00N 59°25' E 005°15'3 5.5
2018-Jun-13 05:30N 59°27' E 005°12'713.5
2018-Jun-13 04:59N 59°30' E 005°00'612.3
2018-Jun-13 04:30N 59°36' E 004°56'713.5
2018-Jun-13 04:00N 59°43' E 004°56'713.8
2018-Jun-13 03:30N 59°49' E 004°56'714.0
2018-Jun-13 03:00N 59°56' E 004°56'713.9
2018-Jun-13 02:30N 60°03' E 004°55'610.8
2018-Jun-13 01:59N 60°09' E 004°53'5 9.7
2018-Jun-13 01:31N 60°09' E 004°44'182 9.9
2018-Jun-12 07:02N 63°05' E 006°20'012.4
2018-Jun-12 07:01N 63°05' E 006°21'612.6
2018-Jun-12 06:30N 63°07' E 006°34'612.7
2018-Jun-12 06:00N 63°09' E 006°47'612.5
2018-Jun-12 05:30N 63°11' E 007°00'612.4
2018-Jun-12 05:00N 63°14' E 007°13'612.4
2018-Jun-12 04:30N 63°16' E 007°26'611.8
2018-Jun-12 04:00N 63°15' E 007°39'511.0
2018-Jun-12 03:30N 63°13' E 007°51'611.6
2018-Jun-12 03:00N 63°15' E 008°03'612.0
2018-Jun-12 02:30N 63°18' E 008°14'612.4
2018-Jun-12 02:00N 63°22' E 008°25'612.4
2018-Jun-12 01:31N 63°25' E 008°37'612.1
2018-Jun-12 01:00N 63°27' E 008°50'612.9
2018-Jun-12 00:30N 63°29' E 009°03'713.2
2018-Jun-12 00:00N 63°33' E 009°16'612.8
2018-Jun-11 23:30N 63°36' E 009°29'713.1
2018-Jun-11 23:00N 63°39' E 009°42'510.3
2018-Jun-11 22:29N 63°35' E 009°50'612.5
2018-Jun-11 22:00N 63°30' E 009°55'612.5
2018-Jun-11 21:30N 63°28' E 010°09'612.6
2018-Jun-11 21:01N 63°27' E 010°22'1 1.5
2018-Jun-11 20:29N 63°26' E 010°24'0 0.0
2018-Jun-11 19:59N 63°26' E 010°24'0 0.0
2018-Jun-11 19:29N 63°26' E 010°24'0 0.0
2018-Jun-11 18:59N 63°26' E 010°24'0 0.0
2018-Jun-11 18:29N 63°26' E 010°24'0 0.0
2018-Jun-11 17:59N 63°26' E 010°24'0 0.0
2018-Jun-11 17:29N 63°26' E 010°24'0 0.0
2018-Jun-11 16:59N 63°26' E 010°24'0 0.0
2018-Jun-11 16:29N 63°26' E 010°24'0 0.0
2018-Jun-11 15:59N 63°26' E 010°24'0 0.0
2018-Jun-11 15:29N 63°26' E 010°24'0 0.0
2018-Jun-11 14:59N 63°26' E 010°24'0 0.0
2018-Jun-11 14:29N 63°26' E 010°24'0 0.0
2018-Jun-11 13:59N 63°26' E 010°24'0 0.0
2018-Jun-11 13:29N 63°26' E 010°24'0 0.0
2018-Jun-11 12:59N 63°26' E 010°24'0 0.0
2018-Jun-11 12:29N 63°26' E 010°24'0 0.0
2018-Jun-11 11:59N 63°26' E 010°24'0 0.0
2018-Jun-11 11:29N 63°26' E 010°24'0 0.0
2018-Jun-11 10:59N 63°26' E 010°24'0 0.0
2018-Jun-11 10:29N 63°26' E 010°24'0 0.0
2018-Jun-11 09:59N 63°26' E 010°24'0 0.0
2018-Jun-11 09:29N 63°26' E 010°24'0 0.0
2018-Jun-11 08:59N 63°26' E 010°24'0 0.0
2018-Jun-11 08:29N 63°26' E 010°24'0 0.0
2018-Jun-11 07:59N 63°26' E 010°24'0 0.0
2018-Jun-11 07:29N 63°26' E 010°24'3 5.6
2018-Jun-11 07:00N 63°28' E 010°19'918.3
2018-Jun-11 06:30N 63°29' E 009°58'918.0
2018-Jun-11 06:00N 63°37' E 009°48'612.8
2018-Jun-11 05:31N 63°38' E 009°34'816.0
2018-Jun-11 05:00N 63°38' E 009°16'510.5
2018-Jun-11 04:30N 63°43' E 009°14'510.3
2018-Jun-11 04:00N 63°49' E 009°14'510.1
2018-Jun-11 03:29N 63°54' E 009°17'5 9.9
2018-Jun-11 03:00N 63°58' E 009°23'5 9.9
2018-Jun-11 02:29N 64°02' E 009°29'510.1
2018-Jun-11 02:00N 64°06' E 009°35'510.2
2018-Jun-11 01:30N 64°11' E 009°40'510.6
2018-Jun-11 00:59N 64°16' E 009°42'510.6
2018-Jun-11 00:30N 64°21' E 009°43'23710.1
2018-Jun-10 00:59N 68°10' E 012°16'510.3
2018-Jun-10 00:30N 68°13' E 012°25'510.4
2018-Jun-10 00:00N 68°16' E 012°38'510.5
2018-Jun-09 23:30N 68°18' E 012°51'  
Track history (hours):
 
Tides and Currents Weather Stations Pressure Air Temp Water Temp Dewpoint Dewpoint Depression Visibility Wind Speed Wind Dir Waves Ship Positions

Aidaaura

Last reported at 2018-Jun-19 23:25 UTC. Time now 2018-Jun-20 05:07 UTC.
Position N 62°47' E 005°32'.

Length 203 m; draft 6.3 m.

Type: Passenger vessel. MMSI: 247117400.

Date/timePositionNaut miles runAvg speedWind from/ knotsBaromVisibWave heightAir tempDewpointWater temp
2018-Jun-19 23:25N 62°47' E 005°32'512.3
2018-Jun-19 23:00N 62°43' E 005°32'612.6
2018-Jun-19 22:30N 62°36' E 005°31'510.8
2018-Jun-19 22:00N 62°32' E 005°39'611.9
2018-Jun-19 21:29N 62°28' E 005°49'612.9
2018-Jun-19 20:59N 62°25' E 006°02'713.2
2018-Jun-19 20:30N 62°23' E 006°15'816.6
2018-Jun-19 20:00N 62°26' E 006°32'816.0
2018-Jun-19 19:29N 62°27' E 006°50'816.4
2018-Jun-19 18:59N 62°19' E 006°58'816.7
2018-Jun-19 18:30N 62°11' E 007°02'611.7
2018-Jun-19 18:00N 62°05' E 007°02'5 9.3
2018-Jun-19 17:30N 62°06' E 007°11'0 0.0
2018-Jun-19 16:55N 62°06' E 007°11'0 0.0
2018-Jun-19 16:25N 62°06' E 007°11'0 0.0
2018-Jun-19 15:55N 62°06' E 007°11'0 0.0
2018-Jun-19 15:25N 62°06' E 007°11'0 0.0
2018-Jun-19 14:55N 62°06' E 007°11'0 0.1
2018-Jun-19 14:25N 62°06' E 007°11'0 0.0
2018-Jun-19 13:55N 62°06' E 007°11'0 0.0
2018-Jun-19 13:25N 62°06' E 007°11'0 0.0
2018-Jun-19 12:55N 62°06' E 007°11'0 0.0
2018-Jun-19 12:25N 62°06' E 007°11'0 0.0
2018-Jun-19 11:55N 62°06' E 007°11'0 0.0
2018-Jun-19 11:25N 62°06' E 007°11'0 0.0
2018-Jun-19 10:55N 62°06' E 007°11'0 0.0
2018-Jun-19 10:25N 62°06' E 007°11'0 0.0
2018-Jun-19 09:55N 62°06' E 007°11'0 0.0
2018-Jun-19 09:25N 62°06' E 007°11'0 0.0
2018-Jun-19 08:55N 62°06' E 007°11'0 0.0
2018-Jun-19 08:25N 62°06' E 007°11'2 4.9
2018-Jun-19 08:00N 62°07' E 007°07'5 9.8
2018-Jun-19 07:30N 62°07' E 006°57'1 0.4
2018-Jun-19 05:19N 62°06' E 006°55'414.7
2018-Jun-19 05:00N 62°10' E 007°01'714.5
2018-Jun-19 04:30N 62°17' E 007°01'713.6
2018-Jun-19 04:00N 62°24' E 006°55'713.3
2018-Jun-19 03:29N 62°27' E 006°44'715.3
2018-Jun-19 03:00N 62°25' E 006°28'815.7
2018-Jun-19 02:30N 62°23' E 006°12'714.3
2018-Jun-19 02:00N 62°27' E 005°59'611.3
2018-Jun-19 01:31N 62°29' E 005°48'713.6
2018-Jun-19 01:00N 62°31' E 005°34'815.0
2018-Jun-19 00:30N 62°31' E 005°18'815.6
2018-Jun-18 23:59N 62°29' E 005°02'9415.6
2018-Jun-18 17:57N 60°57' E 004°15'920.0
2018-Jun-18 17:30N 60°50' E 004°26'1020.0
2018-Jun-18 16:59N 60°44' E 004°43'713.7
2018-Jun-18 16:30N 60°39' E 004°52'1019.7
2018-Jun-18 16:00N 60°30' E 004°59'916.8
2018-Jun-18 15:29N 60°23' E 005°10'4 8.9
2018-Jun-18 15:00N 60°24' E 005°19'0 0.0
2018-Jun-18 14:30N 60°24' E 005°19'0 0.0
2018-Jun-18 14:00N 60°24' E 005°19'0 0.0
2018-Jun-18 13:30N 60°24' E 005°19'0 0.0
2018-Jun-18 13:00N 60°24' E 005°19'0 0.0
2018-Jun-18 12:30N 60°24' E 005°19'0 0.0
2018-Jun-18 12:00N 60°24' E 005°19'0 0.0
2018-Jun-18 11:30N 60°24' E 005°19'0 0.0
2018-Jun-18 11:00N 60°24' E 005°19'0 0.0
2018-Jun-18 10:30N 60°24' E 005°19'0 0.0
2018-Jun-18 10:00N 60°24' E 005°19'0 0.0
2018-Jun-18 09:30N 60°24' E 005°19'0 0.0
2018-Jun-18 09:00N 60°24' E 005°19'0 0.0
2018-Jun-18 08:29N 60°24' E 005°19'0 0.0
2018-Jun-18 08:00N 60°24' E 005°19'0 0.0
2018-Jun-18 07:30N 60°24' E 005°19'0 0.0
2018-Jun-18 07:00N 60°24' E 005°19'0 0.0
2018-Jun-18 06:30N 60°24' E 005°19'0 0.0
2018-Jun-18 06:00N 60°24' E 005°19'1 2.2
2018-Jun-18 05:30N 60°24' E 005°16'5 9.3
2018-Jun-18 05:00N 60°21' E 005°10'712.6
2018-Jun-18 04:29N 60°14' E 005°10'713.3
2018-Jun-18 04:00N 60°09' E 005°02'510.1
2018-Jun-18 03:30N 60°07' E 004°53'510.6
2018-Jun-18 03:00N 60°03' E 004°45'510.7
2018-Jun-18 02:30N 60°00' E 004°36'6912.7
2018-Jun-17 21:04N 58°51' E 004°30'115.9
2018-Jun-17 21:01N 58°50' E 004°31'816.0
2018-Jun-17 20:29N 58°44' E 004°40'815.7
2018-Jun-17 20:00N 58°39' E 004°51'815.7
2018-Jun-17 19:30N 58°33' E 005°01'815.2
2018-Jun-17 19:01N 58°27' E 005°11'714.5
2018-Jun-17 18:30N 58°22' E 005°20'714.6
2018-Jun-17 18:00N 58°16' E 005°29'713.8
2018-Jun-17 17:30N 58°11' E 005°38'714.1
2018-Jun-17 17:00N 58°07' E 005°48'2214.0
2018-Jun-17 15:27N 57°52' E 006°19'1314.1
2018-Jun-17 14:30N 57°47' E 006°42'715.0
2018-Jun-17 14:00N 57°45' E 006°55'815.5
2018-Jun-17 13:30N 57°43' E 007°10'815.3
2018-Jun-17 13:00N 57°43' E 007°24'714.7
2018-Jun-17 12:30N 57°45' E 007°37'714.2
2018-Jun-17 12:00N 57°45' E 007°51'714.6
2018-Jun-17 11:30N 57°45' E 008°04'8518.1
2018-Jun-17 06:47N 57°50' E 010°44'518.1
2018-Jun-17 06:30N 57°46' E 010°52'918.3
2018-Jun-17 06:00N 57°40' E 011°04'918.5
2018-Jun-17 05:30N 57°34' E 011°17'917.9
2018-Jun-17 05:00N 57°28' E 011°28'918.3
2018-Jun-17 04:30N 57°19' E 011°35'918.7
2018-Jun-17 04:00N 57°10' E 011°40'10117.1
2018-Jun-16 22:06N 55°33' E 010°52'218.6
2018-Jun-16 22:00N 55°31' E 010°53'918.4
2018-Jun-16 21:30N 55°23' E 011°01'918.5
2018-Jun-16 21:00N 55°15' E 011°06'918.1
2018-Jun-16 20:30N 55°06' E 011°03'917.1
2018-Jun-16 20:00N 54°57' E 010°59'816.0
2018-Jun-16 19:30N 54°50' E 010°53'917.1
2018-Jun-16 19:00N 54°42' E 010°54'510.9
2018-Jun-16 18:31N 54°37' E 010°49'918.1
2018-Jun-16 18:01N 54°33' E 010°35'917.8
2018-Jun-16 17:31N 54°30' E 010°21'713.5
2018-Jun-16 17:00N 54°25' E 010°13'5 9.9
2018-Jun-16 16:30N 54°20' E 010°10'1 1.1
2018-Jun-16 15:40N 54°20' E 010°09'0 0.0
2018-Jun-16 15:28N 54°20' E 010°09'0 0.0
2018-Jun-16 04:55N 54°20' E 010°09'4 7.8
2018-Jun-16 04:25N 54°23' E 010°12'614.6
2018-Jun-16 04:00N 54°29' E 010°16'611.4
2018-Jun-16 03:30N 54°32' E 010°24'510.8
2018-Jun-16 03:00N 54°34' E 010°33'511.0
2018-Jun-16 02:31N 54°37' E 010°41'611.1
2018-Jun-16 02:01N 54°40' E 010°48'510.3
2018-Jun-16 01:30N 54°45' E 010°52'510.3
2018-Jun-16 01:00N 54°50' E 010°51'510.8
2018-Jun-16 00:30N 54°55' E 010°54'510.9
2018-Jun-16 00:01N 54°59' E 011°00'611.5
2018-Jun-15 23:30N 55°05' E 011°01'712.2
2018-Jun-15 22:55N 55°12' E 011°05'410.0
2018-Jun-15 22:30N 55°16' E 011°04'510.9
2018-Jun-15 22:00N 55°21' E 011°02'4710.2
2018-Jun-15 17:26N 56°05' E 010°33'614.2
2018-Jun-15 17:00N 56°08' E 010°23'510.0
2018-Jun-15 16:30N 56°09' E 010°14'0 0.4
2018-Jun-15 16:00N 56°09' E 010°14'0 0.0
2018-Jun-15 15:30N 56°09' E 010°14'0 0.0
2018-Jun-15 15:00N 56°09' E 010°14'0 0.0
2018-Jun-15 14:28N 56°09' E 010°14'0 0.0
2018-Jun-15 14:00N 56°09' E 010°14'0 0.0
2018-Jun-15 13:27N 56°09' E 010°14'0 0.0
2018-Jun-15 12:57N 56°09' E 010°14'0 0.0
2018-Jun-15 12:30N 56°09' E 010°14'0 0.0
2018-Jun-15 12:00N 56°09' E 010°14'0 0.0
2018-Jun-15 09:06N 56°09' E 010°14'0 0.0
2018-Jun-15 09:00N 56°09' E 010°14'0 0.0
2018-Jun-15 08:30N 56°09' E 010°14'0 0.0
2018-Jun-15 07:06N 56°09' E 010°14'0 0.0
2018-Jun-15 07:00N 56°09' E 010°14'0 0.0
2018-Jun-15 06:24N 56°09' E 010°14'0 0.0
2018-Jun-15 06:00N 56°09' E 010°14'1 1.5
2018-Jun-15 05:31N 56°10' E 010°15'611.2
2018-Jun-15 05:00N 56°07' E 010°24'510.4
2018-Jun-15 04:30N 56°05' E 010°32'74 7.7
2018-Jun-14 18:55N 57°10' E 011°34'410.3
2018-Jun-14 18:30N 57°14' E 011°32'510.4
2018-Jun-14 18:00N 57°19' E 011°28'510.5
2018-Jun-14 17:30N 57°24' E 011°25'5 9.6
2018-Jun-14 16:59N 57°29' E 011°20'510.7
2018-Jun-14 16:31N 57°32' E 011°14'510.4
2018-Jun-14 16:00N 57°36' E 011°07'2211.1
2018-Jun-14 14:03N 57°51' E 010°37'10011.6
2018-Jun-14 05:25N 57°41' E 007°30'511.7
2018-Jun-14 05:00N 57°42' E 007°21'611.5
2018-Jun-14 04:30N 57°42' E 007°10'611.6
2018-Jun-14 03:57N 57°42' E 006°58'4410.9
2018-Jun-13 23:55N 58°04' E 005°47'2411.3
2018-Jun-13 21:49N 58°20' E 005°13'411.6
2018-Jun-13 21:29N 58°24' E 005°13'611.7
2018-Jun-13 20:58N 58°30' E 005°14'511.4
2018-Jun-13 20:30N 58°35' E 005°15'611.6
2018-Jun-13 20:01N 58°41' E 005°16'611.7
2018-Jun-13 19:30N 58°47' E 005°17'611.8
2018-Jun-13 19:00N 58°53' E 005°17'611.8
2018-Jun-13 18:30N 58°59' E 005°18'611.5
2018-Jun-13 18:00N 59°04' E 005°18'5 9.6
2018-Jun-13 17:30N 59°07' E 005°10'816.9
2018-Jun-13 17:00N 59°15' E 005°07'816.6
2018-Jun-13 16:31N 59°23' E 005°07'4 8.2
2018-Jun-13 16:00N 59°25' E 005°15'0 0.8
2018-Jun-13 15:28N 59°25' E 005°15'0 0.0
2018-Jun-13 14:58N 59°25' E 005°15'0 0.0
2018-Jun-13 14:28N 59°25' E 005°15'0 0.0
2018-Jun-13 13:58N 59°25' E 005°15'0 0.0
2018-Jun-13 13:28N 59°25' E 005°15'0 0.0
2018-Jun-13 12:58N 59°25' E 005°15'0 0.0
2018-Jun-13 12:25N 59°25' E 005°15'0 0.0
2018-Jun-13 11:58N 59°25' E 005°15'0 0.0
2018-Jun-13 11:28N 59°25' E 005°15'0 0.0
2018-Jun-13 10:58N 59°25' E 005°15'0 0.0
2018-Jun-13 10:28N 59°25' E 005°15'0 0.0
2018-Jun-13 09:58N 59°25' E 005°15'0 0.0
2018-Jun-13 09:28N 59°25' E 005°15'0 0.0
2018-Jun-13 08:58N 59°25' E 005°15'0 0.0
2018-Jun-13 08:28N 59°25' E 005°15'0 0.0
2018-Jun-13 07:58N 59°25' E 005°15'0 0.0
2018-Jun-13 07:28N 59°25' E 005°15'0 0.0
2018-Jun-13 06:58N 59°25' E 005°15'0 0.0
2018-Jun-13 06:28N 59°25' E 005°15'0 0.0
2018-Jun-13 06:00N 59°25' E 005°15'3 5.5
2018-Jun-13 05:30N 59°27' E 005°12'713.5
2018-Jun-13 04:59N 59°30' E 005°00'612.3
2018-Jun-13 04:30N 59°36' E 004°56'713.5
2018-Jun-13 04:00N 59°43' E 004°56'713.8
2018-Jun-13 03:30N 59°49' E 004°56'714.0
2018-Jun-13 03:00N 59°56' E 004°56'713.9
2018-Jun-13 02:30N 60°03' E 004°55'610.8
2018-Jun-13 01:59N 60°09' E 004°53'5 9.7
2018-Jun-13 01:31N 60°09' E 004°44'182 9.9
2018-Jun-12 07:02N 63°05' E 006°20'012.4
2018-Jun-12 07:01N 63°05' E 006°21'612.6
2018-Jun-12 06:30N 63°07' E 006°34'612.7
2018-Jun-12 06:00N 63°09' E 006°47'612.5
2018-Jun-12 05:30N 63°11' E 007°00'612.4
2018-Jun-12 05:00N 63°14' E 007°13'612.4
2018-Jun-12 04:30N 63°16' E 007°26'611.8
2018-Jun-12 04:00N 63°15' E 007°39'511.0
2018-Jun-12 03:30N 63°13' E 007°51'611.6
2018-Jun-12 03:00N 63°15' E 008°03'612.0
2018-Jun-12 02:30N 63°18' E 008°14'612.4
2018-Jun-12 02:00N 63°22' E 008°25'612.4
2018-Jun-12 01:31N 63°25' E 008°37'612.1
2018-Jun-12 01:00N 63°27' E 008°50'612.9
2018-Jun-12 00:30N 63°29' E 009°03'713.2
2018-Jun-12 00:00N 63°33' E 009°16'612.8
2018-Jun-11 23:30N 63°36' E 009°29'713.1
2018-Jun-11 23:00N 63°39' E 009°42'510.3
2018-Jun-11 22:29N 63°35' E 009°50'612.5
2018-Jun-11 22:00N 63°30' E 009°55'612.5
2018-Jun-11 21:30N 63°28' E 010°09'612.6
2018-Jun-11 21:01N 63°27' E 010°22'1 1.5
2018-Jun-11 20:29N 63°26' E 010°24'0 0.0
2018-Jun-11 19:59N 63°26' E 010°24'0 0.0
2018-Jun-11 19:29N 63°26' E 010°24'0 0.0
2018-Jun-11 18:59N 63°26' E 010°24'0 0.0
2018-Jun-11 18:29N 63°26' E 010°24'0 0.0
2018-Jun-11 17:59N 63°26' E 010°24'0 0.0
2018-Jun-11 17:29N 63°26' E 010°24'0 0.0
2018-Jun-11 16:59N 63°26' E 010°24'0 0.0
2018-Jun-11 16:29N 63°26' E 010°24'0 0.0
2018-Jun-11 15:59N 63°26' E 010°24'0 0.0
2018-Jun-11 15:29N 63°26' E 010°24'0 0.0
2018-Jun-11 14:59N 63°26' E 010°24'0 0.0
2018-Jun-11 14:29N 63°26' E 010°24'0 0.0
2018-Jun-11 13:59N 63°26' E 010°24'0 0.0
2018-Jun-11 13:29N 63°26' E 010°24'0 0.0
2018-Jun-11 12:59N 63°26' E 010°24'0 0.0
2018-Jun-11 12:29N 63°26' E 010°24'0 0.0
2018-Jun-11 11:59N 63°26' E 010°24'0 0.0
2018-Jun-11 11:29N 63°26' E 010°24'0 0.0
2018-Jun-11 10:59N 63°26' E 010°24'0 0.0
2018-Jun-11 10:29N 63°26' E 010°24'0 0.0
2018-Jun-11 09:59N 63°26' E 010°24'0 0.0
2018-Jun-11 09:29N 63°26' E 010°24'0 0.0
2018-Jun-11 08:59N 63°26' E 010°24'0 0.0
2018-Jun-11 08:29N 63°26' E 010°24'0 0.0
2018-Jun-11 07:59N 63°26' E 010°24'0 0.0
2018-Jun-11 07:29N 63°26' E 010°24'3 5.6
2018-Jun-11 07:00N 63°28' E 010°19'918.3
2018-Jun-11 06:30N 63°29' E 009°58'918.0
2018-Jun-11 06:00N 63°37' E 009°48'612.8
2018-Jun-11 05:31N 63°38' E 009°34'816.0
2018-Jun-11 05:00N 63°38' E 009°16'510.5
2018-Jun-11 04:30N 63°43' E 009°14'510.3
2018-Jun-11 04:00N 63°49' E 009°14'510.1
2018-Jun-11 03:29N 63°54' E 009°17'5 9.9
2018-Jun-11 03:00N 63°58' E 009°23'5 9.9
2018-Jun-11 02:29N 64°02' E 009°29'510.1
2018-Jun-11 02:00N 64°06' E 009°35'510.2
2018-Jun-11 01:30N 64°11' E 009°40'510.6
2018-Jun-11 00:59N 64°16' E 009°42'510.6
2018-Jun-11 00:30N 64°21' E 009°43'23710.1
2018-Jun-10 00:59N 68°10' E 012°16'510.3
2018-Jun-10 00:30N 68°13' E 012°25'510.4
2018-Jun-10 00:00N 68°16' E 012°38'510.5
2018-Jun-09 23:30N 68°18' E 012°51'  

Dump ship's entire track history